Addison Township, Michigan
Current Conditions -  °F | °C
As of 3:54 PM on Saturday 25 Oct 2014 (Local Time) from KD95 Reporting Station
Scattered Clouds Scattered Clouds  
Wind Chill: 65°   Ceiling: Unl
Heat Index: 65°   Visibility: 10mi
Dew Point: 38°   Wind: 16mph
Humidity: 36%   Direction: 290°WNW
Pressure: 29.7"   Gusts: 25mph
Location:  42.8434°N, 83.1398°W
Report Text: KD95 251954Z AUTO 29014G22KT 10SM SCT055 19/03 A2970 RMK AO2 T01860031
Loading
Personal Weather Stations






























Interactive Weather Map New forecast layout! Learn more

10-Day Weather Forecast

Advertisements
Track Severe Weather on mobile